Time;durP1;ratioP1;P1;durP2;ratioP2;P2;SDS_P1;SDS_P2;PMS_P1;PMS_P2;Temp;Humidity;BMP_temperature;BMP_pressure;BME280_temperature;BME280_humidity;BME280_pressure;Samples;Min_cycle;Max_cycle;Signal;HPM_P1;HPM_P2
2022/11/02 00:01:19;;;;;;;10.25;5.13;;;;;;;3.41;64.50;99305.38;5098168;27;20046;-73
2022/11/02 00:03:43;;;;;;;7.05;4.45;;;;;;;3.39;64.18;99307.22;5080307;27;20130;-73
2022/11/02 00:06:08;;;;;;;12.60;4.75;;;;;;;3.42;64.45;99302.66;5098547;27;20145;-71
2022/11/02 00:08:33;;;;;;;6.90;4.60;;;;;;;3.44;64.00;99297.31;5098113;27;20087;-73
2022/11/02 00:10:58;;;;;;;12.13;5.63;;;;;;;3.42;63.70;99296.53;5118821;27;20045;-71
2022/11/02 00:13:22;;;;;;;6.80;4.63;;;;;;;3.41;63.95;99297.47;5120684;27;20048;-72
2022/11/02 00:15:47;;;;;;;10.52;4.47;;;;;;;3.43;64.13;99295.63;5120240;27;20133;-74
2022/11/02 00:18:13;;;;;;;7.43;4.78;;;;;;;3.46;63.71;99300.75;5118906;27;20046;-70
2022/11/02 00:20:40;;;;;;;10.23;5.25;;;;;;;3.42;64.01;99294.75;5119201;27;20061;-73
2022/11/02 00:23:06;;;;;;;9.18;4.80;;;;;;;3.41;63.98;99297.47;5101373;27;20504;-75
2022/11/02 00:25:30;;;;;;;11.20;5.15;;;;;;;3.40;63.97;99285.22;5103150;27;20446;-72
2022/11/02 00:27:55;;;;;;;9.25;5.00;;;;;;;3.39;63.88;99288.78;5129197;27;20043;-69
2022/11/02 00:30:20;;;;;;;9.07;4.35;;;;;;;3.35;64.23;99280.19;5087515;27;20137;-72
2022/11/02 00:32:45;;;;;;;7.88;4.20;;;;;;;3.38;63.78;99287.09;5124575;27;20062;-67
2022/11/02 00:35:10;;;;;;;8.98;5.07;;;;;;;3.40;64.15;99286.06;5083276;27;20045;-66
2022/11/02 00:37:34;;;;;;;9.43;4.68;;;;;;;3.43;63.90;99283.28;5083147;27;20041;-65
2022/11/02 00:39:59;;;;;;;6.88;4.30;;;;;;;3.45;64.25;99286.72;5118504;27;20050;-67
2022/11/02 00:42:24;;;;;;;6.28;4.13;;;;;;;3.49;63.92;99287.44;5118514;27;20054;-65
2022/11/02 00:44:48;;;;;;;8.57;4.80;;;;;;;3.49;63.87;99280.38;5118793;27;20440;-65
2022/11/02 00:47:14;;;;;;;6.25;3.88;;;;;;;3.52;63.66;99281.97;5099638;27;20409;-66
2022/11/02 00:49:39;;;;;;;9.43;4.05;;;;;;;3.49;63.32;99279.53;5117507;27;20039;-65
2022/11/02 00:52:04;;;;;;;10.65;5.90;;;;;;;3.46;63.78;99283.16;5098848;27;20203;-66
2022/11/02 00:54:29;;;;;;;10.40;4.72;;;;;;;3.45;63.67;99281.44;5099014;27;20090;-66
2022/11/02 00:56:54;;;;;;;7.05;4.00;;;;;;;3.46;63.82;99282.31;5091941;27;20130;-64
2022/11/02 00:59:19;;;;;;;6.93;4.03;;;;;;;3.45;63.45;99280.59;5098936;27;20053;-63
2022/11/02 01:01:46;;;;;;;7.07;4.05;;;;;;;3.47;63.70;99276.09;5117151;27;20386;-68
2022/11/02 01:04:10;;;;;;;10.30;4.38;;;;;;;3.48;63.39;99275.19;5098474;27;20049;-65
2022/11/02 01:06:36;;;;;;;6.53;3.92;;;;;;;3.50;63.82;99268.06;5117552;27;20038;-65
2022/11/02 01:09:01;;;;;;;9.65;4.05;;;;;;;3.51;63.64;99275.88;5117476;27;20524;-66
2022/11/02 01:11:25;;;;;;;8.25;4.53;;;;;;;3.52;63.70;99277.56;5117523;27;20607;-68
2022/11/02 01:13:51;;;;;;;8.85;4.22;;;;;;;3.53;63.65;99275.78;5098118;27;20046;-67
2022/11/02 01:16:16;;;;;;;6.18;4.43;;;;;;;3.52;63.63;99268.81;5098765;27;20050;-68
2022/11/02 01:18:40;;;;;;;9.57;4.70;;;;;;;3.50;63.28;99282.06;5080921;27;20054;-67
2022/11/02 01:21:06;;;;;;;7.13;4.25;;;;;;;3.51;63.26;99277.63;5116734;27;20157;-66
2022/11/02 01:23:32;;;;;;;7.63;4.05;;;;;;;3.49;63.36;99282.16;5098537;27;20042;-65
2022/11/02 01:25:57;;;;;;;8.95;5.05;;;;;;;3.51;63.74;99282.91;5117275;27;20450;-71
2022/11/02 01:28:21;;;;;;;8.32;4.47;;;;;;;3.51;63.59;99281.13;5098216;27;20443;-70
2022/11/02 01:30:47;;;;;;;11.55;4.15;;;;;;;3.47;63.47;99281.38;5081718;27;20038;-71
2022/11/02 01:33:11;;;;;;;13.43;5.25;;;;;;;3.48;63.80;99280.44;5099586;27;20485;-70
2022/11/02 01:35:36;;;;;;;8.23;4.20;;;;;;;3.49;64.06;99266.34;5118304;27;20447;-71
2022/11/02 01:38:01;;;;;;;6.55;3.60;;;;;;;3.48;63.89;99265.50;5118860;27;20042;-74
2022/11/02 01:40:26;;;;;;;10.93;5.05;;;;;;;3.49;63.84;99264.56;5117203;27;20051;-70
2022/11/02 01:42:50;;;;;;;6.93;4.32;;;;;;;3.50;64.20;99268.06;5098287;27;20054;-74
2022/11/02 01:45:15;;;;;;;7.00;4.53;;;;;;;3.51;64.30;99267.09;5116530;27;20049;-72
2022/11/02 01:47:44;;;;;;;6.88;4.55;;;;;;;3.54;64.13;99265.19;5116575;27;20050;-73
2022/11/02 01:50:15;;;;;;;9.43;4.70;;;;;;;3.54;64.32;99264.31;5064319;27;20061;-72
2022/11/02 01:52:40;;;;;;;5.72;3.95;;;;;;;3.52;64.64;99264.41;5098888;27;20492;-74
2022/11/02 01:55:21;;;;;;;8.82;4.00;;;;;;;3.60;64.51;99261.41;5098069;27;20405;-72
2022/11/02 01:57:52;;;;;;;12.98;3.95;;;;;;;3.55;64.53;99263.41;5097755;27;20042;-72
2022/11/02 02:00:18;;;;;;;7.50;4.25;;;;;;;3.51;64.80;99270.59;5080679;27;20046;-70
2022/11/02 02:02:51;;;;;;;11.20;5.03;;;;;;;3.53;65.50;99273.16;5116069;27;20130;-70
2022/11/02 02:05:17;;;;;;;;;;;;;;;3.62;65.24;99273.56;5081653;27;20043;-69
2022/11/02 02:07:42;;;;;;;6.65;3.58;;;;;;;3.51;64.86;99267.97;5116638;27;19987;-71
2022/11/02 02:10:07;;;;;;;4.28;3.28;;;;;;;3.42;65.16;99271.03;5077732;27;20035;-73
2022/11/02 02:12:35;;;;;;;5.75;3.92;;;;;;;3.38;65.22;99279.19;5094453;27;20616;-69
2022/11/02 02:15:00;;;;;;;8.90;4.40;;;;;;;3.38;65.96;99273.91;5077923;27;20043;-72
2022/11/02 02:17:39;;;;;;;8.52;4.18;;;;;;;3.43;65.37;99274.53;5060308;27;20050;-68
2022/11/02 02:20:23;;;;;;;9.52;4.30;;;;;;;3.41;65.81;99271.97;5095587;27;20137;-77
2022/11/02 02:23:00;;;;;;;6.88;3.83;;;;;;;3.39;65.87;99271.19;5078035;27;20475;-71
2022/11/02 02:26:03;;;;;;;6.90;4.05;;;;;;;3.41;65.83;99263.22;5099308;27;20065;-75
2022/11/02 02:28:53;;;;;;;8.25;4.63;;;;;;;3.37;65.62;99267.78;5098637;27;20056;-74
2022/11/02 02:31:23;;;;;;;7.82;4.03;;;;;;;3.31;65.50;99261.94;5080963;27;20122;-72
2022/11/02 02:33:52;;;;;;;6.05;3.55;;;;;;;3.27;65.67;99275.25;5098825;27;20073;-76
2022/11/02 02:36:28;;;;;;;7.22;4.60;;;;;;;3.31;65.80;99261.94;5097654;27;20519;-73
2022/11/02 02:39:05;;;;;;;6.82;3.90;;;;;;;3.31;65.89;99251.41;5080840;27;20034;-73
2022/11/02 02:41:38;;;;;;;6.43;3.45;;;;;;;3.34;66.00;99261.81;5097841;27;20043;-69
2022/11/02 02:44:07;;;;;;;7.43;3.85;;;;;;;3.32;66.12;99259.25;5116140;27;20835;-72
2022/11/02 02:46:39;;;;;;;7.88;3.53;;;;;;;3.37;66.13;99261.66;5081247;27;20046;-71
2022/11/02 02:49:07;;;;;;;7.03;3.63;;;;;;;3.38;65.98;99260.75;5101598;27;20091;-71
2022/11/02 02:51:34;;;;;;;8.32;3.13;;;;;;;3.39;65.87;99262.41;5063542;28;20486;-71
2022/11/02 02:54:06;;;;;;;13.07;3.95;;;;;;;3.39;66.00;99270.31;5099790;27;20508;-70
2022/11/02 02:56:39;;;;;;;5.65;3.22;;;;;;;3.39;66.06;99259.78;5099215;27;20043;-70
2022/11/02 02:59:07;;;;;;;7.85;3.10;;;;;;;3.36;66.01;99265.22;5098507;27;20045;-72
2022/11/02 03:01:34;;;;;;;5.65;3.47;;;;;;;3.35;66.73;99267.00;5098631;27;20070;-71
2022/11/02 03:03:59;;;;;;;7.50;3.80;;;;;;;3.31;66.70;99257.53;5081838;27;20038;-71
2022/11/02 03:06:29;;;;;;;5.32;3.72;;;;;;;3.35;66.53;99269.66;5098553;27;20061;-71
2022/11/02 03:09:08;;;;;;;9.27;4.30;;;;;;;3.38;66.69;99268.66;5081543;27;20047;-72
2022/11/02 03:11:48;;;;;;;6.25;3.47;;;;;;;3.39;66.65;99270.31;5099327;27;20042;-74
2022/11/02 03:14:31;;;;;;;9.52;4.35;;;;;;;3.44;66.42;99266.56;5084124;27;20125;-71
2022/11/02 03:17:38;;;;;;;5.90;4.15;;;;;;;3.50;66.72;99270.69;5085975;27;20416;-74
2022/11/02 03:20:24;;;;;;;6.05;4.30;;;;;;;3.50;66.44;99274.16;5021232;28;20052;-67
2022/11/02 03:22:48;;;;;;;6.35;3.80;;;;;;;3.41;66.73;99273.75;5003920;28;20049;-68
2022/11/02 03:25:43;;;;;;;6.13;4.32;;;;;;;3.46;67.06;99267.34;5037890;28;20063;-72
2022/11/02 03:28:15;;;;;;;6.10;4.00;;;;;;;3.34;67.03;99264.44;4976008;28;20158;-69
2022/11/02 03:30:53;;;;;;;6.47;4.55;;;;;;;3.29;67.01;99276.03;4954842;28;20089;-74
2022/11/02 03:33:23;;;;;;;8.52;4.90;;;;;;;3.18;67.59;99262.53;4962326;28;20050;-72
2022/11/02 03:35:56;;;;;;;8.68;4.68;;;;;;;3.16;68.01;99277.53;4963954;28;20046;-72
2022/11/02 03:38:35;;;;;;;8.77;4.90;;;;;;;3.18;68.33;99273.06;4942501;28;20421;-72
2022/11/02 03:41:03;;;;;;;8.32;4.30;;;;;;;3.13;68.17;99269.81;4958409;28;20453;-73
2022/11/02 03:43:33;;;;;;;6.70;4.68;;;;;;;3.09;68.69;99273.50;4958170;28;20074;-71
2022/11/02 03:46:02;;;;;;;8.40;4.47;;;;;;;3.10;68.87;99272.59;4942228;28;20129;-70
2022/11/02 03:48:31;;;;;;;10.38;4.70;;;;;;;3.10;69.36;99263.81;4957786;28;20551;-73
2022/11/02 03:51:01;;;;;;;7.50;4.45;;;;;;;3.14;69.13;99263.63;4985135;28;20053;-74
2022/11/02 03:53:36;;;;;;;9.43;4.72;;;;;;;3.18;69.44;99265.16;4976403;28;20045;-74
2022/11/02 03:56:14;;;;;;;11.00;4.55;;;;;;;3.22;69.37;99261.47;4976901;28;20455;-72
2022/11/02 03:58:39;;;;;;;6.72;4.45;;;;;;;3.22;69.69;99260.63;5037521;28;20044;-72
2022/11/02 04:01:09;;;;;;;8.13;4.82;;;;;;;3.26;69.51;99259.56;5037221;28;20130;-73
2022/11/02 04:03:42;;;;;;;6.72;5.03;;;;;;;3.28;69.86;99258.53;5046874;28;20044;-71
2022/11/02 04:06:06;;;;;;;9.68;5.38;;;;;;;3.26;69.80;99249.00;5102111;27;20258;-71
2022/11/02 04:08:39;;;;;;;7.60;4.65;;;;;;;3.29;69.85;99249.69;5109267;27;20081;-71
2022/11/02 04:16:40;;;;;;;;;;;;;;;3.37;69.80;99249.34;5079505;27;20043;-72
2022/11/02 04:19:26;;;;;;;9.38;5.55;;;;;;;3.22;69.83;99253.56;5079632;27;19927;-72
2022/11/02 04:27:22;;;;;;;12.70;5.70;;;;;;;3.15;70.32;99246.03;5078507;27;20043;-71
2022/11/02 04:29:49;;;;;;;9.50;5.15;;;;;;;3.15;70.28;99248.69;5078825;27;20043;-69
2022/11/02 04:32:14;;;;;;;8.07;4.78;;;;;;;3.15;70.40;99253.94;5097150;27;20168;-69
2022/11/02 04:34:38;;;;;;;10.93;4.72;;;;;;;3.17;70.62;99245.00;5078990;27;20043;-70
2022/11/02 04:38:39;;;;;;;10.25;4.47;;;;;;;3.21;70.56;99248.38;5095468;27;20043;-70
2022/11/02 04:39:48;;;;;;;8.85;4.90;;;;;;;3.22;70.58;99245.66;5097266;27;20038;-71
2022/11/02 04:42:12;;;;;;;9.35;4.93;;;;;;;3.24;70.52;99245.59;5096965;27;20054;-70
2022/11/02 04:44:40;;;;;;;5.70;3.97;;;;;;;3.24;70.51;99243.81;5097127;27;20053;-72
2022/11/02 04:47:14;;;;;;;6.25;4.57;;;;;;;3.25;70.29;99245.53;5063367;27;20108;-71
2022/11/02 04:49:39;;;;;;;14.70;5.90;;;;;;;3.24;70.30;99246.44;5082376;27;20121;-75
2022/11/02 04:52:08;;;;;;;7.45;4.55;;;;;;;3.27;70.38;99241.00;5082493;27;20397;-74
2022/11/02 04:54:35;;;;;;;5.20;3.80;;;;;;;3.31;70.53;99247.00;5065311;27;20057;-70
2022/11/02 04:57:03;;;;;;;7.97;4.20;;;;;;;3.33;70.25;99239.88;5100268;27;20440;-70
2022/11/02 04:59:28;;;;;;;8.63;3.80;;;;;;;3.38;70.39;99237.03;5081696;27;20489;-69
2022/11/02 05:01:53;;;;;;;7.32;4.35;;;;;;;3.41;70.15;99242.97;5099591;27;20511;-70
2022/11/02 05:04:18;;;;;;;7.68;4.65;;;;;;;3.45;69.90;99241.91;5117527;27;20087;-69
2022/11/02 05:06:45;;;;;;;9.55;4.30;;;;;;;3.45;70.01;99234.00;5099219;27;20065;-73
2022/11/02 05:09:10;;;;;;;8.82;4.57;;;;;;;3.48;70.20;99238.28;5098592;27;20043;-71
2022/11/02 05:11:39;;;;;;;7.22;3.92;;;;;;;3.49;70.27;99240.00;5081934;27;20074;-70
2022/11/02 05:14:03;;;;;;;6.32;4.50;;;;;;;3.52;70.13;99239.81;5098687;27;20069;-70
2022/11/02 05:16:28;;;;;;;8.35;4.13;;;;;;;3.52;70.08;99242.47;5117472;27;20038;-72
2022/11/02 05:18:53;;;;;;;6.55;4.18;;;;;;;3.53;69.98;99242.38;5116774;27;20496;-71
2022/11/02 05:21:18;;;;;;;6.95;4.03;;;;;;;3.53;70.02;99242.38;5078135;27;20382;-70
2022/11/02 05:23:43;;;;;;;8.45;4.15;;;;;;;3.53;69.76;99234.47;5060872;27;20062;-70
2022/11/02 05:26:11;;;;;;;5.63;4.00;;;;;;;3.56;69.43;99242.25;5095773;27;20054;-70
2022/11/02 05:28:39;;;;;;;8.93;4.28;;;;;;;3.52;69.38;99235.41;5077465;27;20501;-70
2022/11/02 05:31:04;;;;;;;7.78;4.30;;;;;;;3.51;69.00;99243.38;5078529;27;20443;-70
2022/11/02 05:33:32;;;;;;;8.32;4.68;;;;;;;3.52;69.27;99247.72;5077360;27;20517;-70
2022/11/02 05:36:01;;;;;;;8.05;4.60;;;;;;;3.53;69.20;99245.03;5077620;27;20089;-70
2022/11/02 05:38:28;;;;;;;9.10;5.38;;;;;;;3.55;69.44;99240.53;5077029;27;20087;-71
2022/11/02 05:40:57;;;;;;;6.78;4.78;;;;;;;3.60;69.41;99248.22;5077933;27;20039;-70
2022/11/02 05:43:25;;;;;;;7.13;4.88;;;;;;;3.63;69.33;99238.38;5078342;27;20043;-71
2022/11/02 05:45:58;;;;;;;8.52;4.40;;;;;;;3.70;69.18;99241.56;5077700;27;20066;-70
2022/11/02 05:48:24;;;;;;;13.00;5.38;;;;;;;3.71;68.98;99240.63;5096466;27;20043;-69
2022/11/02 05:50:48;;;;;;;6.38;4.10;;;;;;;3.73;68.66;99244.03;5060615;27;20127;-68
2022/11/02 05:53:13;;;;;;;7.72;4.43;;;;;;;3.75;68.59;99242.16;5096635;27;20154;-68
2022/11/02 05:55:38;;;;;;;10.10;4.90;;;;;;;3.78;68.52;99247.28;5096383;27;20043;-68
2022/11/02 05:58:02;;;;;;;8.55;4.57;;;;;;;3.79;68.46;99248.16;5094874;27;20576;-69
2022/11/02 06:00:27;;;;;;;9.75;3.97;;;;;;;3.79;68.43;99243.72;5060392;27;20039;-69
2022/11/02 06:02:56;;;;;;;8.10;5.15;;;;;;;3.83;68.03;99252.34;5077589;27;20409;-68
2022/11/02 06:05:21;;;;;;;4.93;3.70;;;;;;;3.81;68.13;99251.56;5095886;27;20043;-68
2022/11/02 06:07:45;;;;;;;5.82;3.80;;;;;;;3.79;67.70;99241.09;5094541;27;20069;-68
2022/11/02 06:10:10;;;;;;;9.70;4.75;;;;;;;3.80;67.94;99245.44;5096348;27;20117;-69
2022/11/02 06:12:34;;;;;;;8.57;4.90;;;;;;;3.80;67.56;99247.22;5096063;27;20070;-69
2022/11/02 06:14:59;;;;;;;6.97;4.03;;;;;;;3.79;67.53;99238.47;5106992;27;20090;-72
2022/11/02 06:17:23;;;;;;;8.80;4.15;;;;;;;3.78;67.10;99236.75;5116929;27;20047;-73
2022/11/02 06:19:49;;;;;;;5.32;4.13;;;;;;;3.82;67.11;99238.31;5096827;27;20440;-72
2022/11/02 06:22:13;;;;;;;6.88;4.72;;;;;;;3.82;67.18;99238.31;5116503;27;20405;-76
2022/11/02 06:24:38;;;;;;;7.40;4.68;;;;;;;3.85;67.05;99242.56;5099437;27;20390;-71
2022/11/02 06:27:02;;;;;;;9.20;4.10;;;;;;;3.86;67.12;99244.25;5105706;27;20139;-71
2022/11/02 06:29:27;;;;;;;7.47;4.78;;;;;;;3.90;66.82;99243.19;5101791;27;20042;-72
2022/11/02 06:31:51;;;;;;;9.20;5.15;;;;;;;3.94;66.72;99248.25;5104806;27;20047;-71
2022/11/02 06:34:16;;;;;;;16.10;5.28;;;;;;;4.00;66.65;99241.78;5104017;27;20126;-71
2022/11/02 06:36:40;;;;;;;7.05;4.05;;;;;;;4.08;66.35;99244.03;5102547;27;20039;-72
2022/11/02 06:39:05;;;;;;;6.32;4.43;;;;;;;4.14;66.79;99241.94;5085634;28;20096;-72
2022/11/02 06:41:30;;;;;;;8.43;5.18;;;;;;;4.19;66.67;99242.53;5079387;28;20039;-71
2022/11/02 06:43:55;;;;;;;6.43;4.63;;;;;;;4.23;65.93;99232.69;5094838;28;20099;-72
2022/11/02 06:46:20;;;;;;;7.32;4.78;;;;;;;4.27;66.13;99239.53;5077056;28;20039;-72
2022/11/02 06:48:46;;;;;;;14.73;7.05;;;;;;;4.30;66.31;99247.25;5096146;27;20084;-72
2022/11/02 06:51:11;;;;;;;11.77;6.22;;;;;;;4.29;66.28;99238.47;5082341;27;20046;-72
2022/11/02 06:53:35;;;;;;;15.32;5.22;;;;;;;4.29;65.84;99237.63;5084299;27;20048;-72
2022/11/02 06:56:00;;;;;;;9.25;5.82;;;;;;;4.32;65.94;99240.97;5099437;27;20145;-72
2022/11/02 06:58:26;;;;;;;10.45;6.30;;;;;;;4.37;65.58;99243.38;5098964;27;20224;-72
2022/11/02 07:00:57;;;;;;;9.38;5.25;;;;;;;4.46;66.02;99237.59;5096345;27;20149;-72
2022/11/02 07:03:21;;;;;;;8.20;5.05;;;;;;;4.49;65.94;99232.19;5100991;27;20572;-71
2022/11/02 07:05:52;;;;;;;8.85;4.97;;;;;;;4.55;65.61;99231.84;5119773;27;21060;-71
2022/11/02 07:08:18;;;;;;;8.48;5.47;;;;;;;4.55;65.44;99234.47;5121650;27;20070;-70
2022/11/02 07:10:42;;;;;;;12.00;6.40;;;;;;;4.58;65.39;99242.25;5124650;27;20046;-69
2022/11/02 07:13:07;;;;;;;13.05;5.70;;;;;;;4.62;65.03;99235.88;5124851;27;20061;-71
2022/11/02 07:15:31;;;;;;;9.10;5.28;;;;;;;4.65;64.79;99240.97;5103866;27;20492;-70
2022/11/02 07:17:56;;;;;;;12.38;5.60;;;;;;;4.63;64.10;99242.81;5100918;27;20042;-70
2022/11/02 07:20:20;;;;;;;12.88;5.35;;;;;;;4.53;64.35;99244.25;5083297;27;20073;-70
2022/11/02 07:22:54;;;;;;;13.25;5.43;;;;;;;4.47;64.10;99252.50;5100677;27;20433;-70
2022/11/02 07:25:18;;;;;;;16.73;5.75;;;;;;;4.35;64.71;99256.66;5119134;27;20043;-71
2022/11/02 07:27:43;;;;;;;10.82;6.10;;;;;;;4.26;64.82;99248.38;5100985;27;20049;-71
2022/11/02 07:30:08;;;;;;;11.98;6.45;;;;;;;4.23;65.14;99256.44;5100769;27;20038;-71
2022/11/02 07:32:43;;;;;;;11.57;5.43;;;;;;;4.27;65.12;99258.84;5118779;27;20027;-74
2022/11/02 07:35:10;;;;;;;12.18;5.20;;;;;;;4.28;65.12;99257.06;5119007;27;20054;-73
2022/11/02 07:37:35;;;;;;;16.63;6.32;;;;;;;4.27;65.26;99261.47;5100644;27;20396;-71
2022/11/02 07:40:00;;;;;;;11.88;5.82;;;;;;;4.27;65.15;99265.91;5118593;27;20123;-72
2022/11/02 07:42:24;;;;;;;11.90;5.30;;;;;;;4.26;65.40;99259.78;5118909;27;20066;-71
2022/11/02 07:44:49;;;;;;;11.30;6.13;;;;;;;4.24;65.09;99272.19;5100914;27;20073;-71
2022/11/02 07:47:13;;;;;;;11.73;6.28;;;;;;;4.21;65.56;99271.47;5119254;27;20046;-71
2022/11/02 07:49:38;;;;;;;11.15;6.53;;;;;;;4.20;65.42;99264.50;5100399;27;20519;-72
2022/11/02 07:52:02;;;;;;;12.57;6.55;;;;;;;4.21;65.77;99269.69;5099958;27;20065;-72
2022/11/02 07:54:27;;;;;;;13.90;6.20;;;;;;;4.25;65.52;99280.97;5118962;27;20133;-72
2022/11/02 07:56:52;;;;;;;13.32;6.60;;;;;;;4.27;65.97;99273.81;5083486;27;20463;-71
2022/11/02 07:59:16;;;;;;;13.70;6.72;;;;;;;4.30;65.66;99266.56;5118729;27;20049;-72
2022/11/02 08:01:41;;;;;;;11.15;6.80;;;;;;;4.32;65.86;99271.78;5099082;27;20039;-72
2022/11/02 08:04:05;;;;;;;18.77;7.28;;;;;;;4.37;66.25;99275.91;5118685;27;20489;-69
2022/11/02 08:06:30;;;;;;;12.13;7.72;;;;;;;4.42;66.19;99270.38;5118267;27;20042;-70
2022/11/02 08:08:55;;;;;;;18.88;7.78;;;;;;;4.43;66.22;99274.72;5118438;27;20038;-71
2022/11/02 08:11:20;;;;;;;15.23;7.30;;;;;;;4.43;66.03;99269.44;5118666;27;20035;-71
2022/11/02 08:13:44;;;;;;;16.20;6.78;;;;;;;4.44;65.67;99268.50;5119063;27;20057;-71
2022/11/02 08:16:09;;;;;;;12.68;7.25;;;;;;;4.46;65.84;99271.91;5119175;27;20046;-69
2022/11/02 08:18:33;;;;;;;21.77;8.20;;;;;;;4.49;65.68;99268.28;5118747;27;20049;-70
2022/11/02 08:20:58;;;;;;;15.48;7.78;;;;;;;4.53;65.32;99270.66;5118455;27;20047;-70
2022/11/02 08:23:25;;;;;;;14.77;8.27;;;;;;;4.57;65.46;99266.94;5118737;27;20087;-69
2022/11/02 08:25:51;;;;;;;16.13;8.35;;;;;;;4.60;65.32;99271.19;5118504;27;20553;-70
2022/11/02 08:28:18;;;;;;;15.45;6.70;;;;;;;4.68;65.81;99267.22;5099869;27;20034;-70
2022/11/02 08:30:43;;;;;;;15.18;6.78;;;;;;;4.72;65.51;99260.00;5118872;27;20034;-70
2022/11/02 08:33:12;;;;;;;15.07;7.13;;;;;;;4.78;64.86;99261.44;5099698;27;20051;-70
2022/11/02 08:35:36;;;;;;;17.38;6.88;;;;;;;4.83;64.54;99254.97;5118040;27;20050;-70
2022/11/02 08:38:01;;;;;;;15.65;7.30;;;;;;;4.92;64.58;99259.75;5118062;27;20121;-71
2022/11/02 08:40:26;;;;;;;14.02;7.43;;;;;;;4.99;63.92;99255.81;5118246;27;20091;-71
2022/11/02 08:43:04;;;;;;;14.45;7.72;;;;;;;5.10;64.44;99257.88;5118200;27;20046;-71
2022/11/02 08:45:30;;;;;;;11.98;6.68;;;;;;;5.07;64.01;99255.44;5121547;27;20099;-73
2022/11/02 08:47:55;;;;;;;14.35;6.22;;;;;;;5.06;63.25;99259.00;5083209;27;20043;-72
2022/11/02 08:50:20;;;;;;;13.88;6.70;;;;;;;5.05;63.29;99254.66;5081773;27;20034;-72
2022/11/02 08:52:44;;;;;;;18.60;6.85;;;;;;;5.00;63.21;99254.91;5117909;27;20042;-70
2022/11/02 08:55:09;;;;;;;17.00;7.35;;;;;;;4.98;63.60;99253.28;5099443;27;20031;-69
2022/11/02 08:58:07;;;;;;;17.45;7.05;;;;;;;5.04;63.56;99253.81;5118383;27;20095;-70
2022/11/02 09:00:33;;;;;;;16.58;6.85;;;;;;;4.91;63.33;99251.91;4996933;28;20075;-71
2022/11/02 09:02:59;;;;;;;14.88;6.35;;;;;;;4.84;63.98;99258.47;4997999;28;20583;-71
2022/11/02 09:05:24;;;;;;;15.18;6.78;;;;;;;4.78;63.85;99262.28;4997758;28;20091;-71
2022/11/02 09:07:57;;;;;;;16.17;8.45;;;;;;;4.78;64.58;99272.00;5014796;28;20049;-71
2022/11/02 09:10:22;;;;;;;17.33;6.70;;;;;;;4.70;64.11;99265.34;4998161;28;20130;-72
2022/11/02 09:12:46;;;;;;;18.98;7.90;;;;;;;4.69;64.42;99262.78;4997199;28;20646;-71
2022/11/02 09:15:11;;;;;;;17.90;7.03;;;;;;;4.68;64.81;99264.56;5014063;28;20476;-70
2022/11/02 09:17:35;;;;;;;12.25;7.32;;;;;;;4.66;64.52;99255.88;5013903;28;20430;-70
2022/11/02 09:20:00;;;;;;;14.63;7.10;;;;;;;4.65;64.77;99255.94;5013135;28;20068;-69
2022/11/02 09:22:24;;;;;;;19.15;8.55;;;;;;;4.64;64.92;99255.09;4997062;28;20057;-70
2022/11/02 09:24:49;;;;;;;11.48;6.43;;;;;;;4.64;64.63;99247.19;5013696;28;20052;-70
2022/11/02 09:27:13;;;;;;;11.57;7.13;;;;;;;4.65;64.56;99248.03;4997019;28;20114;-70
2022/11/02 09:29:38;;;;;;;14.65;7.10;;;;;;;4.70;64.06;99246.88;5014088;28;20063;-71
2022/11/02 09:32:03;;;;;;;19.27;6.85;;;;;;;4.71;64.22;99251.22;4997250;28;20068;-70
2022/11/02 09:34:27;;;;;;;16.15;8.82;;;;;;;4.74;64.25;99245.75;5013701;28;20052;-70
2022/11/02 09:36:52;;;;;;;19.20;8.32;;;;;;;4.73;64.24;99244.06;5101905;27;20408;-68
2022/11/02 09:39:17;;;;;;;12.35;7.28;;;;;;;4.72;64.37;99246.78;5084605;27;20043;-70
2022/11/02 09:42:00;;;;;;;19.08;8.02;;;;;;;4.72;64.42;99252.91;5117369;27;20054;-70
2022/11/02 09:44:34;;;;;;;14.50;8.18;;;;;;;4.74;64.54;99251.03;5117238;27;20433;-70
2022/11/02 09:47:01;;;;;;;14.30;7.40;;;;;;;4.70;64.13;99244.22;5098361;27;20047;-73
2022/11/02 09:49:28;;;;;;;21.70;8.77;;;;;;;4.71;64.20;99247.72;5117759;27;20080;-73
2022/11/02 09:52:00;;;;;;;12.65;7.13;;;;;;;4.72;64.01;99246.78;5115936;27;20038;-71
2022/11/02 09:54:27;;;;;;;17.15;7.28;;;;;;;4.65;64.00;99248.03;5096890;27;20039;-69
2022/11/02 09:56:57;;;;;;;19.50;7.88;;;;;;;4.65;64.52;99248.88;5077799;27;20047;-70
2022/11/02 09:59:25;;;;;;;16.70;8.07;;;;;;;4.64;64.76;99241.91;5078522;27;20196;-72
2022/11/02 10:02:27;;;;;;;13.20;8.32;;;;;;;4.70;64.35;99240.72;5096274;27;20410;-69
2022/11/02 10:05:27;;;;;;;13.70;7.70;;;;;;;4.65;64.42;99245.38;5095992;27;20546;-70
2022/11/02 10:08:23;;;;;;;10.63;7.22;;;;;;;4.67;64.53;99244.38;5021158;28;20059;-69
2022/11/02 10:10:57;;;;;;;12.45;7.25;;;;;;;4.62;64.06;99238.50;5042314;28;20055;-71
2022/11/02 10:13:32;;;;;;;16.27;7.60;;;;;;;4.69;64.50;99246.94;5040870;28;20048;-69
2022/11/02 10:16:04;;;;;;;14.07;7.78;;;;;;;4.66;64.80;99240.03;5019184;28;20048;-70
2022/11/02 10:18:30;;;;;;;13.60;7.13;;;;;;;4.62;63.85;99246.44;5019215;28;20051;-67
2022/11/02 10:20:59;;;;;;;20.17;7.70;;;;;;;4.55;63.70;99245.03;5037641;28;20061;-70
2022/11/02 10:23:33;;;;;;;14.48;7.03;;;;;;;4.48;64.31;99243.66;5036137;28;20121;-69
2022/11/02 10:26:00;;;;;;;17.17;7.85;;;;;;;4.34;64.21;99248.81;5037854;28;20098;-70
2022/11/02 10:28:30;;;;;;;11.18;6.78;;;;;;;4.28;64.50;99249.16;5039846;28;20048;-71
2022/11/02 10:30:54;;;;;;;12.50;6.38;;;;;;;4.24;64.39;99250.22;5041163;28;20675;-73
2022/11/02 10:33:27;;;;;;;11.60;7.32;;;;;;;4.30;64.80;99253.38;5025243;28;20103;-72
2022/11/02 10:36:21;;;;;;;24.00;8.57;;;;;;;4.39;65.13;99254.72;5041035;28;20044;-72
2022/11/02 10:39:05;;;;;;;17.02;7.78;;;;;;;4.50;64.56;99260.28;5020014;28;20105;-70
2022/11/02 10:41:39;;;;;;;24.30;7.40;;;;;;;4.55;64.61;99255.59;5036298;28;20608;-71
2022/11/02 10:44:18;;;;;;;12.70;7.10;;;;;;;4.62;64.20;99258.78;5066241;28;20414;-71
2022/11/02 10:47:26;;;;;;;12.82;8.00;;;;;;;4.74;63.72;99266.00;5102001;28;20383;-71
2022/11/02 10:50:29;;;;;;;13.98;8.27;;;;;;;4.77;63.98;99257.06;5082969;28;20119;-71
2022/11/02 10:53:00;;;;;;;18.13;9.40;;;;;;;4.69;63.69;99268.91;4999244;28;20047;-72
2022/11/02 10:55:31;;;;;;;15.75;8.05;;;;;;;4.66;63.27;99261.16;4982878;28;20076;-72
2022/11/02 10:58:00;;;;;;;11.27;7.03;;;;;;;4.66;63.56;99263.78;5015138;28;20060;-71
2022/11/02 11:00:28;;;;;;;14.35;8.70;;;;;;;4.70;63.56;99261.84;4999322;28;20175;-71
2022/11/02 11:03:11;;;;;;;14.30;8.48;;;;;;;4.78;63.68;99266.72;5028587;28;20048;-70
2022/11/02 11:05:50;;;;;;;13.57;8.02;;;;;;;4.76;63.00;99269.44;5000653;28;20177;-71
2022/11/02 11:08:40;;;;;;;9.95;6.97;;;;;;;4.78;63.27;99257.00;5000943;28;20044;-74
2022/11/02 11:11:18;;;;;;;19.27;6.63;;;;;;;4.75;62.92;99254.53;5033097;28;20067;-73
2022/11/02 11:13:53;;;;;;;12.80;6.38;;;;;;;4.72;62.93;99263.47;5015573;28;20090;-70
2022/11/02 11:16:18;;;;;;;17.80;6.78;;;;;;;4.71;62.45;99259.13;5032837;28;20155;-71
2022/11/02 11:18:50;;;;;;;10.05;6.47;;;;;;;4.72;62.75;99268.75;5032578;28;20048;-71
2022/11/02 11:21:15;;;;;;;9.52;6.70;;;;;;;4.62;62.53;99264.91;5033343;28;20055;-72
2022/11/02 11:23:39;;;;;;;10.98;6.22;;;;;;;4.56;62.37;99267.84;5015935;28;20048;-75
2022/11/02 11:26:11;;;;;;;8.23;5.22;;;;;;;4.50;62.48;99270.84;5017808;28;20163;-72
2022/11/02 11:28:36;;;;;;;17.85;5.70;;;;;;;4.42;62.76;99267.72;5020222;28;20131;-73
2022/11/02 11:31:04;;;;;;;11.10;5.47;;;;;;;4.37;62.88;99264.50;5078657;28;20048;-74
2022/11/02 11:33:30;;;;;;;8.15;5.28;;;;;;;4.35;63.67;99276.91;5063361;28;20536;-74
2022/11/02 11:35:55;;;;;;;9.63;5.25;;;;;;;4.32;63.42;99274.41;5085533;27;20034;-75
2022/11/02 11:38:24;;;;;;;17.25;6.82;;;;;;;4.34;62.98;99267.28;5085908;27;20136;-72
2022/11/02 11:40:53;;;;;;;17.92;6.95;;;;;;;4.30;63.17;99282.41;5101720;27;20178;-71
2022/11/02 11:43:17;;;;;;;12.25;6.50;;;;;;;4.29;63.79;99274.56;5101993;27;20066;-73
2022/11/02 11:45:59;;;;;;;13.90;6.22;;;;;;;4.36;64.01;99271.56;5102377;27;20119;-72
2022/11/02 11:48:36;;;;;;;15.45;6.78;;;;;;;4.37;63.23;99269.78;5121971;27;20039;-73
2022/11/02 11:51:03;;;;;;;11.02;6.40;;;;;;;4.34;63.37;99267.28;5123787;27;20038;-72
2022/11/02 11:53:29;;;;;;;11.40;6.97;;;;;;;4.30;62.80;99269.22;5104650;27;20412;-73
2022/11/02 11:55:59;;;;;;;12.73;7.28;;;;;;;4.29;63.00;99266.66;5084897;27;20099;-72
2022/11/02 11:58:26;;;;;;;12.43;7.47;;;;;;;4.24;62.85;99266.06;5104217;27;20051;-71